sensor_id;sensor_type;location;lat;lon;timestamp;P1;durP1;ratioP1;P2;durP2;ratioP2
9156;SDS011;4613;48.392;9.998;2022-11-30T00:00:22;5.38;;;3.85;;
9156;SDS011;4613;48.392;9.998;2022-11-30T00:03:12;6.50;;;3.67;;
9156;SDS011;4613;48.392;9.998;2022-11-30T00:06:09;7.03;;;4.38;;
9156;SDS011;4613;48.392;9.998;2022-11-30T00:09:00;6.53;;;4.75;;
9156;SDS011;4613;48.392;9.998;2022-11-30T00:11:50;6.28;;;3.67;;
9156;SDS011;4613;48.392;9.998;2022-11-30T00:14:41;5.00;;;3.85;;
9156;SDS011;4613;48.392;9.998;2022-11-30T00:17:30;12.20;;;5.43;;
9156;SDS011;4613;48.392;9.998;2022-11-30T00:20:19;7.75;;;4.65;;
9156;SDS011;4613;48.392;9.998;2022-11-30T00:23:09;6.95;;;4.82;;
9156;SDS011;4613;48.392;9.998;2022-11-30T00:26:01;7.97;;;5.28;;
9156;SDS011;4613;48.392;9.998;2022-11-30T00:28:53;7.78;;;5.03;;
9156;SDS011;4613;48.392;9.998;2022-11-30T00:31:43;7.43;;;5.22;;
9156;SDS011;4613;48.392;9.998;2022-11-30T00:34:33;7.68;;;5.43;;
9156;SDS011;4613;48.392;9.998;2022-11-30T00:37:22;8.45;;;4.75;;
9156;SDS011;4613;48.392;9.998;2022-11-30T00:40:12;10.63;;;5.68;;
9156;SDS011;4613;48.392;9.998;2022-11-30T00:43:01;10.73;;;5.88;;
9156;SDS011;4613;48.392;9.998;2022-11-30T00:45:51;9.88;;;5.30;;
9156;SDS011;4613;48.392;9.998;2022-11-30T00:48:40;12.65;;;7.15;;
9156;SDS011;4613;48.392;9.998;2022-11-30T00:51:30;11.52;;;6.72;;
9156;SDS011;4613;48.392;9.998;2022-11-30T00:54:19;11.48;;;7.00;;
9156;SDS011;4613;48.392;9.998;2022-11-30T00:57:08;9.43;;;5.72;;
9156;SDS011;4613;48.392;9.998;2022-11-30T00:59:58;10.93;;;6.13;;
9156;SDS011;4613;48.392;9.998;2022-11-30T01:02:47;16.50;;;7.03;;
9156;SDS011;4613;48.392;9.998;2022-11-30T01:05:36;13.23;;;7.25;;
9156;SDS011;4613;48.392;9.998;2022-11-30T01:08:26;10.75;;;6.95;;
9156;SDS011;4613;48.392;9.998;2022-11-30T01:11:17;13.02;;;6.97;;
9156;SDS011;4613;48.392;9.998;2022-11-30T01:14:11;10.77;;;6.63;;
9156;SDS011;4613;48.392;9.998;2022-11-30T01:17:03;12.57;;;6.55;;
9156;SDS011;4613;48.392;9.998;2022-11-30T01:19:52;12.98;;;6.53;;
9156;SDS011;4613;48.392;9.998;2022-11-30T01:22:41;11.68;;;6.07;;
9156;SDS011;4613;48.392;9.998;2022-11-30T01:25:31;8.77;;;5.28;;
9156;SDS011;4613;48.392;9.998;2022-11-30T01:28:19;10.32;;;6.50;;
9156;SDS011;4613;48.392;9.998;2022-11-30T01:31:10;11.40;;;6.78;;
9156;SDS011;4613;48.392;9.998;2022-11-30T01:34:04;9.82;;;6.13;;
9156;SDS011;4613;48.392;9.998;2022-11-30T01:36:53;10.00;;;5.95;;
9156;SDS011;4613;48.392;9.998;2022-11-30T01:39:43;12.18;;;6.63;;
9156;SDS011;4613;48.392;9.998;2022-11-30T01:42:32;11.07;;;6.70;;
9156;SDS011;4613;48.392;9.998;2022-11-30T01:45:21;12.52;;;7.70;;
9156;SDS011;4613;48.392;9.998;2022-11-30T01:48:11;8.07;;;5.60;;
9156;SDS011;4613;48.392;9.998;2022-11-30T01:51:01;10.20;;;5.90;;
9156;SDS011;4613;48.392;9.998;2022-11-30T01:53:51;11.10;;;6.72;;
9156;SDS011;4613;48.392;9.998;2022-11-30T01:56:42;9.65;;;5.57;;
9156;SDS011;4613;48.392;9.998;2022-11-30T01:59:39;8.27;;;5.63;;
9156;SDS011;4613;48.392;9.998;2022-11-30T02:02:31;8.23;;;5.15;;
9156;SDS011;4613;48.392;9.998;2022-11-30T02:05:30;7.70;;;5.70;;
9156;SDS011;4613;48.392;9.998;2022-11-30T02:08:22;10.23;;;5.18;;
9156;SDS011;4613;48.392;9.998;2022-11-30T02:11:12;9.43;;;5.25;;
9156;SDS011;4613;48.392;9.998;2022-11-30T02:29:48;8.60;;;5.88;;
9156;SDS011;4613;48.392;9.998;2022-11-30T02:32:55;12.43;;;7.25;;
9156;SDS011;4613;48.392;9.998;2022-11-30T02:35:54;10.80;;;6.13;;
9156;SDS011;4613;48.392;9.998;2022-11-30T02:38:45;11.75;;;6.10;;
9156;SDS011;4613;48.392;9.998;2022-11-30T02:41:35;8.68;;;5.68;;
9156;SDS011;4613;48.392;9.998;2022-11-30T02:44:28;8.93;;;6.55;;
9156;SDS011;4613;48.392;9.998;2022-11-30T02:50:32;7.88;;;6.00;;
9156;SDS011;4613;48.392;9.998;2022-11-30T02:53:38;10.63;;;5.55;;
9156;SDS011;4613;48.392;9.998;2022-11-30T02:56:28;9.48;;;6.50;;
9156;SDS011;4613;48.392;9.998;2022-11-30T02:59:18;10.40;;;5.80;;
9156;SDS011;4613;48.392;9.998;2022-11-30T03:02:08;11.35;;;6.72;;
9156;SDS011;4613;48.392;9.998;2022-11-30T03:04:58;13.20;;;6.88;;
9156;SDS011;4613;48.392;9.998;2022-11-30T03:07:47;9.88;;;6.20;;
9156;SDS011;4613;48.392;9.998;2022-11-30T03:10:36;9.20;;;6.22;;
9156;SDS011;4613;48.392;9.998;2022-11-30T03:13:26;9.57;;;6.63;;
9156;SDS011;4613;48.392;9.998;2022-11-30T03:16:15;10.27;;;7.00;;
9156;SDS011;4613;48.392;9.998;2022-11-30T03:19:05;9.55;;;6.13;;
9156;SDS011;4613;48.392;9.998;2022-11-30T03:21:54;9.98;;;5.82;;
9156;SDS011;4613;48.392;9.998;2022-11-30T03:24:43;8.90;;;5.53;;
9156;SDS011;4613;48.392;9.998;2022-11-30T03:27:33;12.93;;;6.88;;
9156;SDS011;4613;48.392;9.998;2022-11-30T03:30:22;9.77;;;6.53;;
9156;SDS011;4613;48.392;9.998;2022-11-30T03:33:12;10.27;;;6.13;;
9156;SDS011;4613;48.392;9.998;2022-11-30T03:36:02;12.02;;;7.32;;
9156;SDS011;4613;48.392;9.998;2022-11-30T03:38:53;9.65;;;5.95;;
9156;SDS011;4613;48.392;9.998;2022-11-30T03:41:43;11.02;;;6.78;;
9156;SDS011;4613;48.392;9.998;2022-11-30T03:44:32;11.23;;;6.47;;
9156;SDS011;4613;48.392;9.998;2022-11-30T03:47:21;9.15;;;6.60;;
9156;SDS011;4613;48.392;9.998;2022-11-30T03:50:12;10.90;;;6.38;;
9156;SDS011;4613;48.392;9.998;2022-11-30T03:53:02;10.85;;;6.35;;
9156;SDS011;4613;48.392;9.998;2022-11-30T03:55:54;8.93;;;5.78;;
9156;SDS011;4613;48.392;9.998;2022-11-30T03:58:49;13.60;;;8.00;;
9156;SDS011;4613;48.392;9.998;2022-11-30T04:01:39;12.07;;;6.75;;
9156;SDS011;4613;48.392;9.998;2022-11-30T04:04:28;10.73;;;7.07;;
9156;SDS011;4613;48.392;9.998;2022-11-30T04:07:18;10.40;;;6.63;;
9156;SDS011;4613;48.392;9.998;2022-11-30T04:10:08;11.32;;;7.10;;
9156;SDS011;4613;48.392;9.998;2022-11-30T04:12:58;11.07;;;7.03;;
9156;SDS011;4613;48.392;9.998;2022-11-30T04:15:48;9.27;;;6.75;;
9156;SDS011;4613;48.392;9.998;2022-11-30T04:18:39;11.88;;;7.13;;
9156;SDS011;4613;48.392;9.998;2022-11-30T04:21:28;12.00;;;6.45;;
9156;SDS011;4613;48.392;9.998;2022-11-30T04:24:18;12.00;;;7.00;;
9156;SDS011;4613;48.392;9.998;2022-11-30T04:27:07;10.70;;;6.93;;
9156;SDS011;4613;48.392;9.998;2022-11-30T04:29:57;11.45;;;6.75;;
9156;SDS011;4613;48.392;9.998;2022-11-30T04:32:46;12.25;;;6.55;;
9156;SDS011;4613;48.392;9.998;2022-11-30T04:35:44;11.68;;;6.93;;
9156;SDS011;4613;48.392;9.998;2022-11-30T04:38:37;10.70;;;6.65;;
9156;SDS011;4613;48.392;9.998;2022-11-30T04:41:26;10.98;;;7.15;;
9156;SDS011;4613;48.392;9.998;2022-11-30T04:44:19;12.18;;;7.40;;
9156;SDS011;4613;48.392;9.998;2022-11-30T04:47:09;9.80;;;6.35;;
9156;SDS011;4613;48.392;9.998;2022-11-30T04:49:58;10.95;;;7.43;;
9156;SDS011;4613;48.392;9.998;2022-11-30T04:52:48;12.00;;;6.85;;
9156;SDS011;4613;48.392;9.998;2022-11-30T04:55:38;12.38;;;7.20;;
9156;SDS011;4613;48.392;9.998;2022-11-30T04:58:28;10.95;;;6.63;;
9156;SDS011;4613;48.392;9.998;2022-11-30T05:01:17;12.27;;;7.28;;
9156;SDS011;4613;48.392;9.998;2022-11-30T05:04:08;11.98;;;7.25;;
9156;SDS011;4613;48.392;9.998;2022-11-30T05:07:01;11.57;;;7.97;;
9156;SDS011;4613;48.392;9.998;2022-11-30T05:09:50;10.52;;;7.05;;
9156;SDS011;4613;48.392;9.998;2022-11-30T05:12:40;12.95;;;6.93;;
9156;SDS011;4613;48.392;9.998;2022-11-30T05:15:30;10.23;;;7.15;;
9156;SDS011;4613;48.392;9.998;2022-11-30T05:18:21;11.88;;;7.20;;
9156;SDS011;4613;48.392;9.998;2022-11-30T05:21:31;11.98;;;7.68;;
9156;SDS011;4613;48.392;9.998;2022-11-30T05:24:29;14.60;;;7.57;;
9156;SDS011;4613;48.392;9.998;2022-11-30T05:27:19;13.23;;;7.43;;
9156;SDS011;4613;48.392;9.998;2022-11-30T05:30:08;11.95;;;7.50;;
9156;SDS011;4613;48.392;9.998;2022-11-30T05:33:05;13.32;;;7.35;;
9156;SDS011;4613;48.392;9.998;2022-11-30T05:35:55;11.15;;;6.68;;
9156;SDS011;4613;48.392;9.998;2022-11-30T05:38:46;10.45;;;7.43;;
9156;SDS011;4613;48.392;9.998;2022-11-30T05:41:36;11.88;;;7.65;;
9156;SDS011;4613;48.392;9.998;2022-11-30T05:44:25;12.23;;;7.50;;
9156;SDS011;4613;48.392;9.998;2022-11-30T05:47:18;13.02;;;6.90;;
9156;SDS011;4613;48.392;9.998;2022-11-30T05:50:08;15.00;;;7.85;;
9156;SDS011;4613;48.392;9.998;2022-11-30T05:52:57;13.07;;;7.07;;
9156;SDS011;4613;48.392;9.998;2022-11-30T05:55:48;16.15;;;7.75;;
9156;SDS011;4613;48.392;9.998;2022-11-30T05:58:39;13.45;;;8.23;;
9156;SDS011;4613;48.392;9.998;2022-11-30T06:01:28;12.88;;;7.18;;
9156;SDS011;4613;48.392;9.998;2022-11-30T06:04:18;13.77;;;7.18;;
9156;SDS011;4613;48.392;9.998;2022-11-30T06:07:09;11.52;;;5.95;;
9156;SDS011;4613;48.392;9.998;2022-11-30T06:09:59;11.90;;;7.50;;
9156;SDS011;4613;48.392;9.998;2022-11-30T06:12:49;10.30;;;6.70;;
9156;SDS011;4613;48.392;9.998;2022-11-30T06:15:39;9.40;;;6.20;;
9156;SDS011;4613;48.392;9.998;2022-11-30T06:18:30;16.70;;;7.03;;
9156;SDS011;4613;48.392;9.998;2022-11-30T06:21:24;12.98;;;7.40;;
9156;SDS011;4613;48.392;9.998;2022-11-30T06:24:13;12.65;;;7.00;;
9156;SDS011;4613;48.392;9.998;2022-11-30T06:27:02;11.18;;;7.28;;
9156;SDS011;4613;48.392;9.998;2022-11-30T06:29:52;11.48;;;7.57;;
9156;SDS011;4613;48.392;9.998;2022-11-30T06:32:50;11.27;;;7.18;;
9156;SDS011;4613;48.392;9.998;2022-11-30T06:35:44;12.65;;;7.63;;
9156;SDS011;4613;48.392;9.998;2022-11-30T06:38:34;10.95;;;6.47;;
9156;SDS011;4613;48.392;9.998;2022-11-30T06:41:24;11.85;;;7.40;;
9156;SDS011;4613;48.392;9.998;2022-11-30T06:44:13;12.60;;;6.88;;
9156;SDS011;4613;48.392;9.998;2022-11-30T06:47:07;12.50;;;7.38;;
9156;SDS011;4613;48.392;9.998;2022-11-30T06:49:56;13.93;;;8.00;;
9156;SDS011;4613;48.392;9.998;2022-11-30T06:52:46;11.30;;;7.10;;
9156;SDS011;4613;48.392;9.998;2022-11-30T06:55:35;12.88;;;7.28;;
9156;SDS011;4613;48.392;9.998;2022-11-30T06:58:26;11.80;;;6.80;;
9156;SDS011;4613;48.392;9.998;2022-11-30T07:01:15;12.77;;;6.70;;
9156;SDS011;4613;48.392;9.998;2022-11-30T07:04:05;11.90;;;7.43;;
9156;SDS011;4613;48.392;9.998;2022-11-30T07:06:57;9.90;;;7.00;;
9156;SDS011;4613;48.392;9.998;2022-11-30T07:09:47;13.07;;;7.38;;
9156;SDS011;4613;48.392;9.998;2022-11-30T07:12:38;17.38;;;8.32;;
9156;SDS011;4613;48.392;9.998;2022-11-30T07:15:27;9.95;;;6.30;;
9156;SDS011;4613;48.392;9.998;2022-11-30T07:18:17;12.02;;;7.50;;
9156;SDS011;4613;48.392;9.998;2022-11-30T07:21:06;10.65;;;6.60;;
9156;SDS011;4613;48.392;9.998;2022-11-30T07:23:57;15.27;;;7.63;;
9156;SDS011;4613;48.392;9.998;2022-11-30T07:27:05;11.10;;;6.82;;
9156;SDS011;4613;48.392;9.998;2022-11-30T07:29:55;9.25;;;6.63;;
9156;SDS011;4613;48.392;9.998;2022-11-30T07:32:45;13.63;;;7.30;;
9156;SDS011;4613;48.392;9.998;2022-11-30T07:35:36;14.63;;;8.45;;
9156;SDS011;4613;48.392;9.998;2022-11-30T07:38:26;11.90;;;6.95;;
9156;SDS011;4613;48.392;9.998;2022-11-30T07:41:21;10.15;;;6.60;;
9156;SDS011;4613;48.392;9.998;2022-11-30T07:44:11;12.25;;;7.55;;
9156;SDS011;4613;48.392;9.998;2022-11-30T07:47:00;11.48;;;7.10;;
9156;SDS011;4613;48.392;9.998;2022-11-30T07:49:50;14.00;;;7.63;;
9156;SDS011;4613;48.392;9.998;2022-11-30T07:52:39;14.57;;;8.05;;
9156;SDS011;4613;48.392;9.998;2022-11-30T07:55:29;14.05;;;7.75;;
9156;SDS011;4613;48.392;9.998;2022-11-30T07:58:22;18.67;;;8.32;;
9156;SDS011;4613;48.392;9.998;2022-11-30T08:01:15;12.55;;;6.93;;
9156;SDS011;4613;48.392;9.998;2022-11-30T08:04:07;12.30;;;7.30;;
9156;SDS011;4613;48.392;9.998;2022-11-30T08:07:01;11.80;;;8.05;;
9156;SDS011;4613;48.392;9.998;2022-11-30T08:09:50;15.55;;;7.63;;
9156;SDS011;4613;48.392;9.998;2022-11-30T08:12:40;8.73;;;4.07;;
9156;SDS011;4613;48.392;9.998;2022-11-30T08:15:29;9.18;;;6.38;;
9156;SDS011;4613;48.392;9.998;2022-11-30T08:18:19;8.65;;;5.78;;
9156;SDS011;4613;48.392;9.998;2022-11-30T08:21:10;14.17;;;8.13;;
9156;SDS011;4613;48.392;9.998;2022-11-30T08:24:01;13.63;;;7.67;;
9156;SDS011;4613;48.392;9.998;2022-11-30T08:26:51;16.50;;;8.90;;
9156;SDS011;4613;48.392;9.998;2022-11-30T08:29:43;18.70;;;8.80;;
9156;SDS011;4613;48.392;9.998;2022-11-30T08:32:33;18.00;;;9.35;;
9156;SDS011;4613;48.392;9.998;2022-11-30T08:35:23;12.93;;;6.97;;
9156;SDS011;4613;48.392;9.998;2022-11-30T08:38:14;15.10;;;8.25;;
9156;SDS011;4613;48.392;9.998;2022-11-30T08:41:05;13.80;;;7.93;;
9156;SDS011;4613;48.392;9.998;2022-11-30T08:43:55;13.63;;;6.78;;
9156;SDS011;4613;48.392;9.998;2022-11-30T08:46:45;13.13;;;7.40;;
9156;SDS011;4613;48.392;9.998;2022-11-30T08:49:36;15.10;;;7.15;;
9156;SDS011;4613;48.392;9.998;2022-11-30T08:52:25;14.52;;;8.18;;
9156;SDS011;4613;48.392;9.998;2022-11-30T08:55:15;14.77;;;8.10;;
9156;SDS011;4613;48.392;9.998;2022-11-30T08:58:05;12.25;;;7.18;;
9156;SDS011;4613;48.392;9.998;2022-11-30T09:00:54;13.55;;;7.32;;
9156;SDS011;4613;48.392;9.998;2022-11-30T09:03:53;12.63;;;7.40;;
9156;SDS011;4613;48.392;9.998;2022-11-30T09:06:44;14.43;;;7.65;;
9156;SDS011;4613;48.392;9.998;2022-11-30T09:09:34;12.98;;;7.38;;
9156;SDS011;4613;48.392;9.998;2022-11-30T09:12:24;11.98;;;7.30;;
9156;SDS011;4613;48.392;9.998;2022-11-30T09:15:14;12.88;;;7.15;;
9156;SDS011;4613;48.392;9.998;2022-11-30T09:18:03;11.73;;;7.40;;
9156;SDS011;4613;48.392;9.998;2022-11-30T09:20:56;12.35;;;7.40;;
9156;SDS011;4613;48.392;9.998;2022-11-30T09:23:50;11.93;;;6.93;;
9156;SDS011;4613;48.392;9.998;2022-11-30T09:26:40;13.73;;;8.23;;
9156;SDS011;4613;48.392;9.998;2022-11-30T09:29:29;13.77;;;7.45;;
9156;SDS011;4613;48.392;9.998;2022-11-30T09:32:18;10.85;;;7.35;;
9156;SDS011;4613;48.392;9.998;2022-11-30T09:35:08;15.48;;;7.65;;
9156;SDS011;4613;48.392;9.998;2022-11-30T09:37:57;11.88;;;7.75;;
9156;SDS011;4613;48.392;9.998;2022-11-30T09:40:47;10.52;;;7.03;;
9156;SDS011;4613;48.392;9.998;2022-11-30T09:49:56;13.27;;;7.88;;
9156;SDS011;4613;48.392;9.998;2022-11-30T09:52:46;16.40;;;9.25;;
9156;SDS011;4613;48.392;9.998;2022-11-30T09:55:39;17.15;;;9.40;;
9156;SDS011;4613;48.392;9.998;2022-11-30T09:58:37;15.90;;;9.73;;
9156;SDS011;4613;48.392;9.998;2022-11-30T10:01:32;17.70;;;8.05;;
9156;SDS011;4613;48.392;9.998;2022-11-30T10:04:27;15.63;;;8.00;;
9156;SDS011;4613;48.392;9.998;2022-11-30T10:07:30;13.00;;;8.20;;
9156;SDS011;4613;48.392;9.998;2022-11-30T10:16:38;10.38;;;6.32;;
9156;SDS011;4613;48.392;9.998;2022-11-30T10:25:56;10.38;;;6.07;;
9156;SDS011;4613;48.392;9.998;2022-11-30T10:28:53;12.43;;;7.00;;
9156;SDS011;4613;48.392;9.998;2022-11-30T10:31:46;13.07;;;6.93;;
9156;SDS011;4613;48.392;9.998;2022-11-30T10:34:37;15.77;;;8.30;;
9156;SDS011;4613;48.392;9.998;2022-11-30T10:37:35;17.05;;;10.10;;
9156;SDS011;4613;48.392;9.998;2022-11-30T10:40:38;12.65;;;7.72;;
9156;SDS011;4613;48.392;9.998;2022-11-30T10:43:44;12.15;;;6.70;;
9156;SDS011;4613;48.392;9.998;2022-11-30T10:46:37;11.50;;;6.85;;
9156;SDS011;4613;48.392;9.998;2022-11-30T10:49:31;10.38;;;6.13;;
9156;SDS011;4613;48.392;9.998;2022-11-30T10:52:23;9.10;;;5.63;;
9156;SDS011;4613;48.392;9.998;2022-11-30T11:01:34;12.15;;;6.50;;
9156;SDS011;4613;48.392;9.998;2022-11-30T11:04:25;11.60;;;5.57;;
9156;SDS011;4613;48.392;9.998;2022-11-30T11:07:15;8.43;;;6.30;;
9156;SDS011;4613;48.392;9.998;2022-11-30T11:10:04;12.30;;;6.93;;
9156;SDS011;4613;48.392;9.998;2022-11-30T11:13:01;9.75;;;5.57;;
9156;SDS011;4613;48.392;9.998;2022-11-30T11:15:55;9.25;;;5.38;;
9156;SDS011;4613;48.392;9.998;2022-11-30T11:18:54;10.35;;;6.50;;
9156;SDS011;4613;48.392;9.998;2022-11-30T11:21:45;10.82;;;5.65;;
9156;SDS011;4613;48.392;9.998;2022-11-30T11:24:38;13.20;;;7.50;;
9156;SDS011;4613;48.392;9.998;2022-11-30T11:27:29;15.90;;;8.52;;
9156;SDS011;4613;48.392;9.998;2022-11-30T11:38:56;14.88;;;7.15;;
9156;SDS011;4613;48.392;9.998;2022-11-30T11:41:46;9.10;;;5.53;;
9156;SDS011;4613;48.392;9.998;2022-11-30T11:44:36;9.30;;;5.28;;
9156;SDS011;4613;48.392;9.998;2022-11-30T11:47:37;11.38;;;6.47;;
9156;SDS011;4613;48.392;9.998;2022-11-30T11:50:29;11.13;;;7.00;;
9156;SDS011;4613;48.392;9.998;2022-11-30T11:53:21;12.45;;;5.88;;
9156;SDS011;4613;48.392;9.998;2022-11-30T11:56:24;10.38;;;6.05;;
9156;SDS011;4613;48.392;9.998;2022-11-30T11:59:37;12.15;;;5.55;;
9156;SDS011;4613;48.392;9.998;2022-11-30T12:02:42;9.63;;;5.53;;
9156;SDS011;4613;48.392;9.998;2022-11-30T12:05:59;11.85;;;5.93;;
9156;SDS011;4613;48.392;9.998;2022-11-30T12:09:32;9.70;;;6.40;;
9156;SDS011;4613;48.392;9.998;2022-11-30T12:12:17;9.32;;;5.70;;
9156;SDS011;4613;48.392;9.998;2022-11-30T12:15:10;7.18;;;5.22;;
9156;SDS011;4613;48.392;9.998;2022-11-30T12:18:09;8.95;;;5.15;;
9156;SDS011;4613;48.392;9.998;2022-11-30T12:21:10;12.43;;;5.40;;
9156;SDS011;4613;48.392;9.998;2022-11-30T12:24:19;11.60;;;6.72;;
9156;SDS011;4613;48.392;9.998;2022-11-30T12:27:20;8.82;;;5.82;;
9156;SDS011;4613;48.392;9.998;2022-11-30T12:30:20;6.60;;;4.95;;
9156;SDS011;4613;48.392;9.998;2022-11-30T12:33:26;9.20;;;4.97;;
9156;SDS011;4613;48.392;9.998;2022-11-30T12:36:42;9.48;;;5.45;;
9156;SDS011;4613;48.392;9.998;2022-11-30T12:39:47;6.50;;;4.80;;
9156;SDS011;4613;48.392;9.998;2022-11-30T12:46:29;8.45;;;5.10;;
9156;SDS011;4613;48.392;9.998;2022-11-30T12:52:53;9.10;;;5.47;;
9156;SDS011;4613;48.392;9.998;2022-11-30T12:56:10;10.23;;;5.60;;
9156;SDS011;4613;48.392;9.998;2022-11-30T13:05:47;12.10;;;5.60;;
9156;SDS011;4613;48.392;9.998;2022-11-30T13:08:44;8.93;;;4.78;;
9156;SDS011;4613;48.392;9.998;2022-11-30T13:11:40;7.97;;;4.85;;
9156;SDS011;4613;48.392;9.998;2022-11-30T13:14:34;8.93;;;5.20;;
9156;SDS011;4613;48.392;9.998;2022-11-30T13:17:24;6.57;;;4.60;;
9156;SDS011;4613;48.392;9.998;2022-11-30T13:23:28;7.70;;;4.78;;
9156;SDS011;4613;48.392;9.998;2022-11-30T13:26:38;9.88;;;4.90;;
9156;SDS011;4613;48.392;9.998;2022-11-30T13:32:42;10.98;;;5.43;;
9156;SDS011;4613;48.392;9.998;2022-11-30T13:38:43;6.65;;;4.35;;
9156;SDS011;4613;48.392;9.998;2022-11-30T13:41:32;8.70;;;5.80;;
9156;SDS011;4613;48.392;9.998;2022-11-30T13:44:23;10.52;;;6.05;;
9156;SDS011;4613;48.392;9.998;2022-11-30T13:47:29;9.02;;;5.65;;
9156;SDS011;4613;48.392;9.998;2022-11-30T13:50:35;8.30;;;5.70;;
9156;SDS011;4613;48.392;9.998;2022-11-30T13:53:27;12.35;;;5.60;;
9156;SDS011;4613;48.392;9.998;2022-11-30T13:56:31;6.88;;;5.18;;
9156;SDS011;4613;48.392;9.998;2022-11-30T14:05:37;10.52;;;5.68;;
9156;SDS011;4613;48.392;9.998;2022-11-30T14:08:37;9.98;;;5.10;;
9156;SDS011;4613;48.392;9.998;2022-11-30T14:11:34;8.32;;;5.68;;
9156;SDS011;4613;48.392;9.998;2022-11-30T14:14:40;11.77;;;5.60;;
9156;SDS011;4613;48.392;9.998;2022-11-30T14:17:34;8.77;;;5.18;;
9156;SDS011;4613;48.392;9.998;2022-11-30T14:20:25;15.68;;;6.20;;
9156;SDS011;4613;48.392;9.998;2022-11-30T14:23:20;10.40;;;5.95;;
9156;SDS011;4613;48.392;9.998;2022-11-30T14:26:27;8.75;;;4.80;;
9156;SDS011;4613;48.392;9.998;2022-11-30T14:29:26;8.00;;;4.90;;
9156;SDS011;4613;48.392;9.998;2022-11-30T14:32:29;9.98;;;5.53;;
9156;SDS011;4613;48.392;9.998;2022-11-30T14:35:26;8.40;;;5.55;;
9156;SDS011;4613;48.392;9.998;2022-11-30T14:38:26;9.85;;;5.60;;
9156;SDS011;4613;48.392;9.998;2022-11-30T14:41:23;8.95;;;5.38;;
9156;SDS011;4613;48.392;9.998;2022-11-30T14:44:14;10.30;;;5.68;;
9156;SDS011;4613;48.392;9.998;2022-11-30T14:47:14;12.40;;;5.50;;
9156;SDS011;4613;48.392;9.998;2022-11-30T14:50:10;8.25;;;4.90;;
9156;SDS011;4613;48.392;9.998;2022-11-30T14:56:34;8.05;;;4.63;;
9156;SDS011;4613;48.392;9.998;2022-11-30T14:59:34;7.13;;;4.55;;
9156;SDS011;4613;48.392;9.998;2022-11-30T15:02:36;8.18;;;4.97;;
9156;SDS011;4613;48.392;9.998;2022-11-30T15:05:28;8.40;;;4.63;;
9156;SDS011;4613;48.392;9.998;2022-11-30T15:08:18;9.57;;;4.65;;
9156;SDS011;4613;48.392;9.998;2022-11-30T15:11:11;7.90;;;4.78;;
9156;SDS011;4613;48.392;9.998;2022-11-30T15:14:11;8.63;;;4.82;;
9156;SDS011;4613;48.392;9.998;2022-11-30T15:17:11;10.35;;;5.30;;
9156;SDS011;4613;48.392;9.998;2022-11-30T15:20:02;8.48;;;5.07;;
9156;SDS011;4613;48.392;9.998;2022-11-30T15:23:11;8.90;;;4.90;;
9156;SDS011;4613;48.392;9.998;2022-11-30T15:26:05;8.07;;;5.20;;
9156;SDS011;4613;48.392;9.998;2022-11-30T15:29:33;7.95;;;4.88;;
9156;SDS011;4613;48.392;9.998;2022-11-30T15:32:26;9.40;;;4.50;;
9156;SDS011;4613;48.392;9.998;2022-11-30T15:35:21;9.57;;;5.68;;
9156;SDS011;4613;48.392;9.998;2022-11-30T15:38:15;8.18;;;4.45;;
9156;SDS011;4613;48.392;9.998;2022-11-30T15:41:16;9.90;;;5.32;;
9156;SDS011;4613;48.392;9.998;2022-11-30T15:44:21;8.68;;;4.53;;
9156;SDS011;4613;48.392;9.998;2022-11-30T15:53:28;7.93;;;5.68;;
9156;SDS011;4613;48.392;9.998;2022-11-30T15:56:23;7.68;;;4.70;;
9156;SDS011;4613;48.392;9.998;2022-11-30T15:59:21;9.55;;;5.93;;
9156;SDS011;4613;48.392;9.998;2022-11-30T16:02:22;6.45;;;4.32;;
9156;SDS011;4613;48.392;9.998;2022-11-30T16:08:15;10.40;;;5.75;;
9156;SDS011;4613;48.392;9.998;2022-11-30T16:11:11;10.30;;;5.47;;
9156;SDS011;4613;48.392;9.998;2022-11-30T16:14:01;7.32;;;5.22;;
9156;SDS011;4613;48.392;9.998;2022-11-30T16:16:51;11.15;;;5.70;;
9156;SDS011;4613;48.392;9.998;2022-11-30T16:19:42;8.00;;;4.50;;
9156;SDS011;4613;48.392;9.998;2022-11-30T16:22:32;7.63;;;4.78;;
9156;SDS011;4613;48.392;9.998;2022-11-30T16:25:22;6.32;;;4.82;;
9156;SDS011;4613;48.392;9.998;2022-11-30T16:28:13;6.75;;;4.53;;
9156;SDS011;4613;48.392;9.998;2022-11-30T16:31:04;9.30;;;5.28;;
9156;SDS011;4613;48.392;9.998;2022-11-30T16:33:54;8.25;;;5.22;;
9156;SDS011;4613;48.392;9.998;2022-11-30T16:36:44;8.82;;;5.40;;
9156;SDS011;4613;48.392;9.998;2022-11-30T16:39:33;9.32;;;4.60;;
9156;SDS011;4613;48.392;9.998;2022-11-30T16:42:23;5.28;;;3.53;;
9156;SDS011;4613;48.392;9.998;2022-11-30T16:45:14;6.05;;;3.70;;
9156;SDS011;4613;48.392;9.998;2022-11-30T16:48:06;5.72;;;3.75;;
9156;SDS011;4613;48.392;9.998;2022-11-30T16:53:50;4.35;;;3.35;;
9156;SDS011;4613;48.392;9.998;2022-11-30T16:56:40;3.72;;;3.10;;
9156;SDS011;4613;48.392;9.998;2022-11-30T16:59:30;6.03;;;3.47;;
9156;SDS011;4613;48.392;9.998;2022-11-30T17:02:20;3.33;;;2.92;;
9156;SDS011;4613;48.392;9.998;2022-11-30T17:05:11;4.50;;;3.33;;
9156;SDS011;4613;48.392;9.998;2022-11-30T17:08:03;4.68;;;3.70;;
9156;SDS011;4613;48.392;9.998;2022-11-30T17:10:53;5.45;;;3.88;;
9156;SDS011;4613;48.392;9.998;2022-11-30T17:13:42;5.28;;;3.40;;
9156;SDS011;4613;48.392;9.998;2022-11-30T17:16:32;6.55;;;4.10;;
9156;SDS011;4613;48.392;9.998;2022-11-30T17:19:21;9.18;;;4.47;;
9156;SDS011;4613;48.392;9.998;2022-11-30T17:22:17;5.03;;;3.83;;
9156;SDS011;4613;48.392;9.998;2022-11-30T17:25:14;6.75;;;5.00;;
9156;SDS011;4613;48.392;9.998;2022-11-30T17:28:13;7.05;;;4.05;;
9156;SDS011;4613;48.392;9.998;2022-11-30T17:31:05;8.75;;;4.78;;
9156;SDS011;4613;48.392;9.998;2022-11-30T17:33:55;4.93;;;3.78;;
9156;SDS011;4613;48.392;9.998;2022-11-30T17:36:46;5.93;;;3.70;;
9156;SDS011;4613;48.392;9.998;2022-11-30T17:39:38;5.32;;;4.05;;
9156;SDS011;4613;48.392;9.998;2022-11-30T17:42:30;6.00;;;4.13;;
9156;SDS011;4613;48.392;9.998;2022-11-30T17:45:24;7.13;;;3.92;;
9156;SDS011;4613;48.392;9.998;2022-11-30T17:48:16;6.82;;;5.13;;
9156;SDS011;4613;48.392;9.998;2022-11-30T17:51:07;8.32;;;5.68;;
9156;SDS011;4613;48.392;9.998;2022-11-30T17:54:00;6.65;;;4.72;;
9156;SDS011;4613;48.392;9.998;2022-11-30T17:56:53;7.32;;;5.50;;
9156;SDS011;4613;48.392;9.998;2022-11-30T17:59:43;5.78;;;3.95;;
9156;SDS011;4613;48.392;9.998;2022-11-30T18:02:33;7.40;;;4.43;;
9156;SDS011;4613;48.392;9.998;2022-11-30T18:05:24;5.20;;;3.90;;
9156;SDS011;4613;48.392;9.998;2022-11-30T18:08:20;6.50;;;4.07;;
9156;SDS011;4613;48.392;9.998;2022-11-30T18:11:15;4.88;;;3.60;;
9156;SDS011;4613;48.392;9.998;2022-11-30T18:14:04;4.60;;;3.42;;
9156;SDS011;4613;48.392;9.998;2022-11-30T18:16:54;5.07;;;3.58;;
9156;SDS011;4613;48.392;9.998;2022-11-30T18:19:45;5.18;;;3.75;;
9156;SDS011;4613;48.392;9.998;2022-11-30T18:22:35;6.63;;;4.35;;
9156;SDS011;4613;48.392;9.998;2022-11-30T18:25:29;5.15;;;3.67;;
9156;SDS011;4613;48.392;9.998;2022-11-30T18:28:18;5.85;;;4.00;;
9156;SDS011;4613;48.392;9.998;2022-11-30T18:31:08;5.20;;;3.85;;
9156;SDS011;4613;48.392;9.998;2022-11-30T18:34:02;6.95;;;4.32;;
9156;SDS011;4613;48.392;9.998;2022-11-30T18:36:53;5.07;;;3.85;;
9156;SDS011;4613;48.392;9.998;2022-11-30T18:39:49;6.53;;;4.32;;
9156;SDS011;4613;48.392;9.998;2022-11-30T18:42:39;6.90;;;4.35;;
9156;SDS011;4613;48.392;9.998;2022-11-30T18:45:29;7.00;;;4.32;;
9156;SDS011;4613;48.392;9.998;2022-11-30T18:48:28;6.65;;;3.97;;
9156;SDS011;4613;48.392;9.998;2022-11-30T18:51:27;8.15;;;4.78;;
9156;SDS011;4613;48.392;9.998;2022-11-30T18:54:19;9.27;;;5.07;;
9156;SDS011;4613;48.392;9.998;2022-11-30T18:57:19;8.30;;;5.28;;
9156;SDS011;4613;48.392;9.998;2022-11-30T19:00:11;7.55;;;4.80;;
9156;SDS011;4613;48.392;9.998;2022-11-30T19:03:11;7.75;;;5.07;;
9156;SDS011;4613;48.392;9.998;2022-11-30T19:06:07;8.40;;;4.95;;
9156;SDS011;4613;48.392;9.998;2022-11-30T19:09:07;8.00;;;5.15;;
9156;SDS011;4613;48.392;9.998;2022-11-30T19:12:03;7.78;;;5.28;;
9156;SDS011;4613;48.392;9.998;2022-11-30T19:14:56;6.50;;;4.72;;
9156;SDS011;4613;48.392;9.998;2022-11-30T19:17:55;6.28;;;4.72;;
9156;SDS011;4613;48.392;9.998;2022-11-30T19:20:57;6.63;;;5.03;;
9156;SDS011;4613;48.392;9.998;2022-11-30T19:23:55;8.50;;;4.97;;